createdAt,value
2022-08-01T00:00:29.703Z,97808.84
2022-08-01T00:03:15.332Z,97710.53
2022-08-01T00:06:01.038Z,97800.34
2022-08-01T00:08:46.254Z,97671.59
2022-08-01T00:11:31.881Z,97741.94
2022-08-01T00:14:17.425Z,97644.81
2022-08-01T00:17:07.214Z,97797.59
2022-08-01T00:19:53.123Z,97781.50
2022-08-01T00:22:38.944Z,97758.31
2022-08-01T00:25:34.336Z,97807.31
2022-08-01T00:28:20.355Z,97730.97
2022-08-01T00:31:05.719Z,97765.41
2022-08-01T00:33:51.434Z,97801.34
2022-08-01T00:36:36.819Z,97718.84
2022-08-01T00:39:22.290Z,97794.28
2022-08-01T00:42:09.665Z,97762.09
2022-08-01T00:44:55.277Z,97804.06
2022-08-01T00:47:41.316Z,97797.00
2022-08-01T00:50:27.219Z,97791.31
2022-08-01T00:53:18.761Z,97631.16
2022-08-01T00:56:05.124Z,97733.34
2022-08-01T00:58:51.078Z,97803.91
2022-08-01T01:01:39.528Z,97760.94
2022-08-01T01:04:25.724Z,97792.47
2022-08-01T01:07:15.807Z,97654.22
2022-08-01T01:10:07.605Z,97802.06
2022-08-01T01:12:56.880Z,97800.69
2022-08-01T01:15:56.310Z,97736.41
2022-08-01T01:18:48.303Z,97791.38
2022-08-01T01:21:36.485Z,97629.81
2022-08-01T01:24:42.050Z,97795.50
2022-08-01T01:27:35.119Z,97779.78
2022-08-01T01:30:22.405Z,97727.13
2022-08-01T01:33:11.246Z,97745.06
2022-08-01T01:36:04.448Z,97622.41
2022-08-01T01:38:58.038Z,97747.50
2022-08-01T01:41:45.257Z,97770.53
2022-08-01T01:44:32.209Z,97600.53
2022-08-01T01:47:19.000Z,97745.66
2022-08-01T01:50:07.656Z,97801.88
2022-08-01T01:52:54.749Z,97774.91
2022-08-01T01:55:49.529Z,97783.41
2022-08-01T01:58:39.939Z,97754.56
2022-08-01T02:01:58.748Z,97784.84
2022-08-01T02:04:37.294Z,97750.31
2022-08-01T02:07:26.369Z,97777.06
2022-08-01T02:10:13.223Z,97744.44
2022-08-01T02:13:03.386Z,97786.28
2022-08-01T02:15:59.676Z,97780.34
2022-08-01T02:18:45.899Z,97633.47
2022-08-01T02:21:38.333Z,97785.19
2022-08-01T02:24:38.244Z,97784.13
2022-08-01T02:27:43.868Z,97765.69
2022-08-01T02:30:36.331Z,97660.53
2022-08-01T02:33:28.137Z,97757.22
2022-08-01T02:36:31.362Z,97798.34
2022-08-01T02:39:24.335Z,97790.56
2022-08-01T02:42:14.271Z,97767.03
2022-08-01T02:45:03.280Z,97796.66
2022-08-01T02:47:51.119Z,97684.00
2022-08-01T02:50:38.262Z,97645.75
2022-08-01T02:53:41.653Z,97802.38
2022-08-01T02:56:38.442Z,97671.19
2022-08-01T02:59:26.763Z,97812.16
2022-08-01T03:02:14.633Z,97802.91
2022-08-01T03:05:02.021Z,97764.66
2022-08-01T03:07:48.813Z,97796.94
2022-08-01T03:10:39.230Z,97793.69
2022-08-01T03:13:26.542Z,97745.81
2022-08-01T03:16:16.791Z,97748.06
2022-08-01T03:19:08.234Z,97752.78
2022-08-01T03:21:56.496Z,97689.53
2022-08-01T03:24:45.944Z,97776.59
2022-08-01T03:27:37.722Z,97746.84
2022-08-01T03:30:28.203Z,97650.50
2022-08-01T03:33:14.439Z,97796.69
2022-08-01T03:36:03.054Z,97802.16
2022-08-01T03:38:51.483Z,97645.88
2022-08-01T03:41:41.748Z,97686.28
2022-08-01T03:44:32.652Z,97847.84
2022-08-01T03:47:19.252Z,97660.41
2022-08-01T03:50:12.244Z,97836.31
2022-08-01T03:53:00.202Z,97819.47
2022-08-01T03:55:45.758Z,97808.25
2022-08-01T03:58:32.013Z,97749.63
2022-08-01T04:01:18.539Z,97828.53
2022-08-01T04:04:06.972Z,97664.78
2022-08-01T04:06:55.094Z,97834.41
2022-08-01T04:09:41.245Z,97833.88
2022-08-01T04:12:28.914Z,97838.88
2022-08-01T04:15:15.230Z,97846.19
2022-08-01T04:18:00.931Z,97838.88
2022-08-01T04:20:48.411Z,97830.25
2022-08-01T04:23:36.586Z,97673.44
2022-08-01T04:26:23.092Z,97745.63
2022-08-01T04:29:10.554Z,97768.00
2022-08-01T04:31:59.105Z,97833.16
2022-08-01T04:34:47.308Z,97681.94
2022-08-01T04:37:34.759Z,97672.81
2022-08-01T04:40:25.268Z,97840.13
2022-08-01T04:43:11.478Z,97837.31
2022-08-01T04:45:59.200Z,97822.66
2022-08-01T04:48:45.828Z,97826.81
2022-08-01T04:51:31.534Z,97783.63
2022-08-01T04:54:17.634Z,97673.94
2022-08-01T04:57:05.055Z,97833.31
2022-08-01T04:59:57.653Z,97701.59
2022-08-01T05:02:44.268Z,97839.50
2022-08-01T05:05:31.544Z,97791.09
2022-08-01T05:08:17.380Z,97829.50
2022-08-01T05:11:03.070Z,97815.66
2022-08-01T05:13:49.061Z,97830.44
2022-08-01T05:16:34.396Z,97835.97
2022-08-01T05:19:22.438Z,97829.00
2022-08-01T05:22:09.884Z,97827.56
2022-08-01T05:24:55.566Z,97742.19
2022-08-01T05:27:43.312Z,97823.19
2022-08-01T05:30:30.230Z,97731.75
2022-08-01T05:33:15.988Z,97834.34
2022-08-01T05:36:02.005Z,97865.94
2022-08-01T05:38:47.858Z,97837.31
2022-08-01T05:41:33.527Z,97833.16
2022-08-01T05:44:19.668Z,97831.13
2022-08-01T05:47:05.734Z,97684.41
2022-08-01T05:49:52.318Z,97837.47
2022-08-01T05:52:37.941Z,97796.53
2022-08-01T05:55:23.347Z,97786.94
2022-08-01T05:58:08.747Z,97812.91
2022-08-01T06:00:59.503Z,97706.38
2022-08-01T06:03:45.343Z,97640.03
2022-08-01T06:06:32.126Z,97840.28
2022-08-01T06:09:18.415Z,97841.00
2022-08-01T06:12:04.837Z,97824.00
2022-08-01T06:14:51.575Z,97838.44
2022-08-01T06:17:36.926Z,97793.28
2022-08-01T06:20:23.228Z,97885.44
2022-08-01T06:23:22.486Z,97716.41
2022-08-01T06:26:19.076Z,97689.22
2022-08-01T06:29:04.911Z,97834.38
2022-08-01T06:31:50.112Z,97841.41
2022-08-01T06:34:35.617Z,97841.41
2022-08-01T06:37:21.234Z,97830.34
2022-08-01T06:40:16.680Z,97840.66
2022-08-01T06:43:03.087Z,97833.91
2022-08-01T06:45:49.410Z,97839.09
2022-08-01T06:48:36.408Z,97808.66
2022-08-01T06:51:22.469Z,97803.91
2022-08-01T06:54:10.241Z,97814.56
2022-08-01T06:56:56.087Z,97835.06
2022-08-01T06:59:41.537Z,97840.91
2022-08-01T07:02:40.271Z,97789.78
2022-08-01T07:05:26.099Z,97856.72
2022-08-01T07:08:11.437Z,97694.19
2022-08-01T07:11:00.177Z,97853.44
2022-08-01T07:13:49.057Z,97852.13
2022-08-01T07:16:34.887Z,97832.88
2022-08-01T07:19:20.771Z,97676.75
2022-08-01T07:22:06.570Z,97814.47
2022-08-01T07:24:54.354Z,97834.41
2022-08-01T07:27:40.282Z,97720.50
2022-08-01T07:30:26.186Z,97682.69
2022-08-01T07:33:13.692Z,97838.22
2022-08-01T07:35:59.415Z,97844.00
2022-08-01T07:38:46.306Z,97836.44
2022-08-01T07:42:04.786Z,97840.75
2022-08-01T07:44:38.404Z,97788.91
2022-08-01T07:47:27.748Z,97883.00
2022-08-01T07:50:14.076Z,97846.38
2022-08-01T07:53:00.562Z,97850.56
2022-08-01T07:55:46.098Z,97825.91
2022-08-01T07:58:34.563Z,97854.75
2022-08-01T08:01:20.915Z,97857.47
2022-08-01T08:04:07.411Z,97866.28
2022-08-01T08:07:04.227Z,97866.56
2022-08-01T08:09:51.045Z,97793.97
2022-08-01T08:12:37.803Z,97860.03
2022-08-01T08:15:24.315Z,97868.59
2022-08-01T08:18:10.221Z,97828.06
2022-08-01T08:20:55.681Z,97810.66
2022-08-01T08:24:00.184Z,97869.81
2022-08-01T08:26:45.879Z,97826.22
2022-08-01T08:29:33.415Z,97717.69
2022-08-01T08:32:19.340Z,97712.88
2022-08-01T08:35:07.325Z,97888.63
2022-08-01T08:37:55.916Z,97784.28
2022-08-01T08:40:44.142Z,97875.75
2022-08-01T08:43:29.836Z,97726.97
2022-08-01T08:46:17.596Z,97887.00
2022-08-01T08:49:08.729Z,97747.50
2022-08-01T08:51:59.721Z,97880.84
2022-08-01T08:54:47.340Z,97883.50
2022-08-01T08:57:33.558Z,97738.34
2022-08-01T09:00:19.637Z,97901.97
2022-08-01T09:03:05.462Z,97899.78
2022-08-01T09:05:51.079Z,97772.19
2022-08-01T09:08:36.886Z,97899.22
2022-08-01T09:11:23.313Z,97909.41
2022-08-01T09:14:28.542Z,97925.38
2022-08-01T09:17:14.552Z,97758.88
2022-08-01T09:19:59.949Z,97868.81
2022-08-01T09:22:47.857Z,97906.38
2022-08-01T09:25:52.775Z,97931.69
2022-08-01T09:28:39.304Z,97903.47
2022-08-01T09:31:27.878Z,97910.56
2022-08-01T09:34:34.587Z,97907.81
2022-08-01T09:37:39.215Z,97911.41
2022-08-01T09:40:53.615Z,97769.91
2022-08-01T09:43:40.117Z,97905.94
2022-08-01T09:46:26.075Z,97908.25
2022-08-01T09:49:14.995Z,97754.94
2022-08-01T09:52:14.161Z,97911.91
2022-08-01T09:55:02.574Z,97886.47
2022-08-01T09:57:59.171Z,97808.31
2022-08-01T10:01:00.731Z,97714.03
2022-08-01T10:03:46.979Z,97912.09
2022-08-01T10:06:33.880Z,97902.69
2022-08-01T10:09:35.986Z,97915.31
2022-08-01T10:12:26.305Z,97932.16
2022-08-01T10:15:12.201Z,97873.50
2022-08-01T10:18:03.087Z,97900.94
2022-08-01T10:20:49.382Z,97919.84
2022-08-01T10:23:40.824Z,97903.03
2022-08-01T10:26:28.350Z,97918.66
2022-08-01T10:29:45.008Z,97779.56
2022-08-01T10:32:25.516Z,97881.94
2022-08-01T10:35:18.294Z,97897.78
2022-08-01T10:38:27.267Z,97747.56
2022-08-01T10:41:18.093Z,97888.91
2022-08-01T10:44:04.985Z,97770.44
2022-08-01T10:46:55.398Z,97862.69
2022-08-01T10:49:51.747Z,97793.47
2022-08-01T10:52:39.686Z,97756.59
2022-08-01T10:55:26.228Z,97907.44
2022-08-01T10:58:13.405Z,97875.59
2022-08-01T11:01:23.867Z,97903.81
2022-08-01T11:04:17.009Z,97903.25
2022-08-01T11:07:17.149Z,97908.28
2022-08-01T11:10:16.219Z,97767.84
2022-08-01T11:13:04.615Z,97916.28
2022-08-01T11:15:51.540Z,97912.69
2022-08-01T11:18:38.747Z,97910.59
2022-08-01T11:22:01.325Z,97919.72
2022-08-01T11:24:50.654Z,97944.88
2022-08-01T11:27:36.562Z,97922.91
2022-08-01T11:30:23.483Z,97780.78
2022-08-01T11:33:11.778Z,97937.63
2022-08-01T11:36:48.693Z,97930.59
2022-08-01T11:39:29.554Z,97910.81
2022-08-01T11:42:20.889Z,97876.94
2022-08-01T11:45:12.514Z,97879.16
2022-08-01T11:48:19.264Z,97907.13
2022-08-01T11:51:22.707Z,97935.69
2022-08-01T11:54:12.742Z,97928.59
2022-08-01T11:57:03.770Z,97886.88
2022-08-01T12:00:03.368Z,97935.75
2022-08-01T12:03:06.610Z,97922.19
2022-08-01T12:05:54.750Z,97928.59
2022-08-01T12:08:41.734Z,97934.44
2022-08-01T12:11:32.462Z,97897.75
2022-08-01T12:14:23.654Z,97934.19
2022-08-01T12:17:09.584Z,97900.84
2022-08-01T12:19:57.149Z,97937.34
2022-08-01T12:22:45.797Z,97942.16
2022-08-01T12:25:34.639Z,97944.97
2022-08-01T12:28:26.045Z,97945.13
2022-08-01T12:31:25.689Z,97944.25
2022-08-01T12:34:31.137Z,97947.34
2022-08-01T12:37:20.634Z,97956.16
2022-08-01T12:40:18.524Z,97956.59
2022-08-01T12:43:08.852Z,97806.25
2022-08-01T12:45:57.367Z,97958.94
2022-08-01T12:48:45.578Z,97953.19
2022-08-01T12:51:32.633Z,97957.31
2022-08-01T12:54:20.014Z,97958.59
2022-08-01T12:57:22.983Z,97958.56
2022-08-01T13:00:26.962Z,97931.03
2022-08-01T13:03:16.444Z,97948.38
2022-08-01T13:06:02.081Z,97810.81
2022-08-01T13:08:47.891Z,97905.53
2022-08-01T13:11:34.345Z,97939.47
2022-08-01T13:14:30.409Z,97910.56
2022-08-01T13:17:31.649Z,97938.25
2022-08-01T13:20:29.964Z,97888.97
2022-08-01T13:24:01.281Z,97954.00
2022-08-01T13:26:46.257Z,97945.84
2022-08-01T13:29:45.875Z,97944.75
2022-08-01T13:32:32.680Z,97906.66
2022-08-01T13:35:23.046Z,97930.75
2022-08-01T13:38:10.060Z,97932.19
2022-08-01T13:40:59.614Z,97944.16
2022-08-01T13:43:58.839Z,97961.00
2022-08-01T13:46:49.955Z,97966.34
2022-08-01T13:49:38.270Z,97852.97
2022-08-01T13:52:27.004Z,97808.25
2022-08-01T13:55:13.816Z,97981.38
2022-08-01T13:58:00.197Z,97970.56
2022-08-01T14:00:47.681Z,97981.91
2022-08-01T14:03:34.262Z,97979.50
2022-08-01T14:06:23.355Z,97884.03
2022-08-01T14:09:17.817Z,97985.84
2022-08-01T14:12:05.344Z,97949.75
2022-08-01T14:14:53.613Z,98000.09
2022-08-01T14:17:39.348Z,97852.97
2022-08-01T14:20:34.380Z,97844.06
2022-08-01T14:23:20.637Z,97985.81
2022-08-01T14:26:12.287Z,97999.16
2022-08-01T14:28:58.602Z,98003.50
2022-08-01T14:31:44.454Z,97996.28
2022-08-01T14:34:30.218Z,98002.63
2022-08-01T14:37:16.446Z,97984.00
2022-08-01T14:40:08.786Z,97963.97
2022-08-01T14:42:55.859Z,97995.88
2022-08-01T14:45:41.539Z,97995.44
2022-08-01T14:48:28.002Z,97992.25
2022-08-01T14:51:16.511Z,97992.25
2022-08-01T14:54:02.844Z,97967.56
2022-08-01T14:56:49.947Z,97996.28
2022-08-01T14:59:37.176Z,98004.94
2022-08-01T15:02:23.438Z,97972.19
2022-08-01T15:05:10.178Z,98004.66
2022-08-01T15:07:56.843Z,97927.59
2022-08-01T15:10:44.559Z,97879.53
2022-08-01T15:13:31.437Z,98015.06
2022-08-01T15:16:20.708Z,97966.09
2022-08-01T15:19:07.740Z,98008.69
2022-08-01T15:21:54.580Z,98006.47
2022-08-01T15:24:41.168Z,98007.03
2022-08-01T15:27:28.787Z,97987.09
2022-08-01T15:30:23.398Z,97980.84
2022-08-01T15:33:14.361Z,97973.38
2022-08-01T15:36:01.667Z,97994.59
2022-08-01T15:38:51.475Z,98007.53
2022-08-01T15:41:39.157Z,98010.63
2022-08-01T15:44:25.927Z,98005.63
2022-08-01T15:47:12.540Z,98000.00
2022-08-01T15:50:00.852Z,98008.53
2022-08-01T15:52:47.222Z,97997.34
2022-08-01T15:55:38.242Z,98005.94
2022-08-01T15:58:24.666Z,97994.75
2022-08-01T16:01:10.908Z,97999.22
2022-08-01T16:03:58.193Z,98001.53
2022-08-01T16:06:44.238Z,98000.91
2022-08-01T16:09:30.275Z,97988.28
2022-08-01T16:12:16.890Z,97993.78
2022-08-01T16:15:02.952Z,97834.66
2022-08-01T16:17:48.354Z,98019.84
2022-08-01T16:20:34.887Z,98003.94
2022-08-01T16:23:20.438Z,98009.72
2022-08-01T16:26:06.437Z,97864.84
2022-08-01T16:29:12.310Z,98002.75
2022-08-01T16:32:10.828Z,97997.13
2022-08-01T16:35:05.168Z,97936.09
2022-08-01T16:37:51.375Z,98004.81
2022-08-01T16:40:47.229Z,98025.44
2022-08-01T16:43:33.333Z,97872.47
2022-08-01T16:46:19.822Z,98019.88
2022-08-01T16:49:06.738Z,98047.69
2022-08-01T16:51:52.936Z,98022.34
2022-08-01T16:54:41.044Z,98007.25
2022-08-01T16:57:33.257Z,98004.94
2022-08-01T17:00:21.400Z,98023.59
2022-08-01T17:03:17.653Z,97948.44
2022-08-01T17:06:22.299Z,98026.19
2022-08-01T17:09:11.687Z,98015.28
2022-08-01T17:12:00.224Z,98029.50
2022-08-01T17:14:47.988Z,98037.88
2022-08-01T17:17:34.766Z,98009.94
2022-08-01T17:20:23.415Z,98030.00
2022-08-01T17:23:22.836Z,98033.69
2022-08-01T17:26:11.748Z,98022.88
2022-08-01T17:28:58.299Z,98021.28
2022-08-01T17:31:46.347Z,98034.22
2022-08-01T17:34:35.071Z,98039.97
2022-08-01T17:37:21.693Z,98042.50
2022-08-01T17:40:37.823Z,97998.22
2022-08-01T17:43:19.909Z,98042.38
2022-08-01T17:46:07.754Z,98009.69
2022-08-01T17:48:53.682Z,98051.44
2022-08-01T17:51:40.198Z,97970.72
2022-08-01T17:54:29.238Z,98045.69
2022-08-01T17:57:15.825Z,98044.66
2022-08-01T18:00:02.027Z,97914.38
2022-08-01T18:02:50.040Z,98048.78
2022-08-01T18:05:38.392Z,98048.19
2022-08-01T18:08:30.596Z,98043.34
2022-08-01T18:11:18.708Z,98053.44
2022-08-01T18:14:07.174Z,97915.69
2022-08-01T18:16:53.197Z,97915.31
2022-08-01T18:19:39.560Z,98063.00
2022-08-01T18:22:32.795Z,98055.06
2022-08-01T18:25:20.042Z,97940.34
2022-08-01T18:28:22.688Z,97909.84
2022-08-01T18:31:13.615Z,98066.00
2022-08-01T18:33:59.855Z,98059.13
2022-08-01T18:36:45.648Z,98078.66
2022-08-01T18:39:31.335Z,97932.22
2022-08-01T18:42:19.647Z,97996.81
2022-08-01T18:45:08.255Z,98084.69
2022-08-01T18:47:56.035Z,98043.75
2022-08-01T18:50:44.676Z,98085.59
2022-08-01T18:53:31.007Z,98086.69
2022-08-01T18:56:19.611Z,98071.97
2022-08-01T18:59:08.477Z,98086.28
2022-08-01T19:01:54.653Z,98083.03
2022-08-01T19:04:40.723Z,98101.47
2022-08-01T19:07:53.521Z,98087.38
2022-08-01T19:10:36.973Z,98107.28
2022-08-01T19:13:25.476Z,97962.00
2022-08-01T19:16:11.983Z,98064.03
2022-08-01T19:18:59.282Z,98026.66
2022-08-01T19:21:45.639Z,98106.34
2022-08-01T19:24:33.861Z,98105.00
2022-08-01T19:27:25.277Z,98107.63
2022-08-01T19:30:12.636Z,98110.69
2022-08-01T19:33:00.382Z,98114.31
2022-08-01T19:35:51.577Z,97980.97
2022-08-01T19:38:40.034Z,98115.19
2022-08-01T19:41:29.725Z,98101.84
2022-08-01T19:44:19.954Z,98113.91
2022-08-01T19:47:10.062Z,98115.22
2022-08-01T19:49:56.144Z,98118.75
2022-08-01T19:52:46.372Z,98059.34
2022-08-01T19:55:39.651Z,97969.19
2022-08-01T19:58:28.204Z,98096.44
2022-08-01T20:01:16.265Z,98125.09
2022-08-01T20:04:06.503Z,98117.63
2022-08-01T20:06:54.672Z,98104.81
2022-08-01T20:09:42.442Z,98099.38
2022-08-01T20:12:28.988Z,98109.88
2022-08-01T20:15:16.690Z,98113.31
2022-08-01T20:18:04.362Z,98080.88
2022-08-01T20:20:52.424Z,98069.66
2022-08-01T20:23:41.512Z,98108.44
2022-08-01T20:26:28.914Z,98132.16
2022-08-01T20:29:22.752Z,98102.06
2022-08-01T20:32:09.975Z,98116.38
2022-08-01T20:34:57.562Z,98104.78
2022-08-01T20:38:05.426Z,98106.06
2022-08-01T20:40:53.312Z,97986.88
2022-08-01T20:43:39.306Z,98102.50
2022-08-01T20:46:32.593Z,98108.50
2022-08-01T20:49:22.368Z,98083.06
2022-08-01T20:52:11.789Z,98115.63
2022-08-01T20:54:59.669Z,98116.91
2022-08-01T20:57:53.645Z,98027.78
2022-08-01T21:00:42.686Z,98133.63
2022-08-01T21:03:50.026Z,98117.56
2022-08-01T21:06:46.518Z,98128.75
2022-08-01T21:09:39.578Z,97975.44
2022-08-01T21:12:33.590Z,98134.34
2022-08-01T21:16:04.316Z,98127.84
2022-08-01T21:19:18.155Z,98168.19
2022-08-01T21:22:10.411Z,98135.31
2022-08-01T21:25:03.385Z,98098.50
2022-08-01T21:27:54.493Z,98143.28
2022-08-01T21:30:41.382Z,97983.84
2022-08-01T21:33:29.148Z,98050.56
2022-08-01T21:36:20.712Z,98130.94
2022-08-01T21:39:08.206Z,98141.91
2022-08-01T21:42:04.724Z,98144.28
2022-08-01T21:44:54.662Z,98151.53
2022-08-01T21:47:41.030Z,98083.22
2022-08-01T21:50:27.392Z,98142.38
2022-08-01T21:53:47.331Z,98138.41
2022-08-01T21:56:45.749Z,98148.38
2022-08-01T21:59:31.604Z,98121.22
2022-08-01T22:02:36.734Z,98116.06
2022-08-01T22:05:49.682Z,98142.91
2022-08-01T22:08:35.944Z,98052.47
2022-08-01T22:11:27.929Z,98114.63
2022-08-01T22:14:16.390Z,98156.94
2022-08-01T22:17:02.751Z,98176.97
2022-08-01T22:19:55.124Z,98160.06
2022-08-01T22:22:50.774Z,98150.09
2022-08-01T22:25:39.782Z,98035.34
2022-08-01T22:28:26.780Z,98150.63
2022-08-01T22:31:17.425Z,98061.59
2022-08-01T22:34:03.057Z,98067.09
2022-08-01T22:36:52.019Z,98152.19
2022-08-01T22:39:38.617Z,98152.00
2022-08-01T22:42:32.038Z,98051.41
2022-08-01T22:45:22.601Z,98154.91
2022-08-01T22:48:19.974Z,98148.88
2022-08-01T22:51:35.540Z,98154.81
2022-08-01T22:54:26.729Z,98155.59
2022-08-01T22:57:20.599Z,98160.72
2022-08-01T23:00:08.914Z,98165.06
2022-08-01T23:02:58.355Z,98158.72
2022-08-01T23:06:01.966Z,98123.38
2022-08-01T23:08:49.168Z,98161.63
2022-08-01T23:11:35.218Z,98167.53
2022-08-01T23:14:22.720Z,98154.84
2022-08-01T23:17:26.505Z,98153.81
2022-08-01T23:20:17.140Z,98116.69
2022-08-01T23:23:04.586Z,98109.63
2022-08-01T23:25:51.658Z,98088.00
2022-08-01T23:28:38.999Z,98151.22
2022-08-01T23:32:01.817Z,98090.41
2022-08-01T23:34:32.305Z,98150.13
2022-08-01T23:37:17.863Z,98150.97
2022-08-01T23:40:04.332Z,98130.44
2022-08-01T23:42:50.322Z,98090.59
2022-08-01T23:45:38.258Z,98152.31
2022-08-01T23:48:41.742Z,98014.38
2022-08-01T23:51:27.778Z,98152.72
2022-08-01T23:54:13.168Z,98060.88
2022-08-01T23:56:59.964Z,98017.06
2022-08-01T23:59:53.056Z,98151.28
